sensor_id;sensor_type;location;lat;lon;timestamp;temperature;humidity
25410;DHT22;13339;50.840;4.346;2023-04-12T00:01:55;11.00;99.90
25410;DHT22;13339;50.840;4.346;2023-04-12T00:04:21;11.10;99.90
25410;DHT22;13339;50.840;4.346;2023-04-12T00:06:47;11.30;99.90
25410;DHT22;13339;50.840;4.346;2023-04-12T00:09:13;11.30;99.90
25410;DHT22;13339;50.840;4.346;2023-04-12T00:11:40;11.30;99.90
25410;DHT22;13339;50.840;4.346;2023-04-12T00:14:06;11.30;99.90
25410;DHT22;13339;50.840;4.346;2023-04-12T00:16:32;11.30;99.90
25410;DHT22;13339;50.840;4.346;2023-04-12T00:18:57;11.30;99.90
25410;DHT22;13339;50.840;4.346;2023-04-12T00:21:23;11.30;99.90
25410;DHT22;13339;50.840;4.346;2023-04-12T00:23:53;11.40;99.90
25410;DHT22;13339;50.840;4.346;2023-04-12T00:26:19;11.50;99.90
25410;DHT22;13339;50.840;4.346;2023-04-12T00:28:50;11.60;99.90
25410;DHT22;13339;50.840;4.346;2023-04-12T00:31:15;11.50;99.90
25410;DHT22;13339;50.840;4.346;2023-04-12T00:33:41;11.50;99.90
25410;DHT22;13339;50.840;4.346;2023-04-12T00:36:07;11.40;99.90
25410;DHT22;13339;50.840;4.346;2023-04-12T00:38:33;11.50;99.90
25410;DHT22;13339;50.840;4.346;2023-04-12T00:40:59;11.30;99.90
25410;DHT22;13339;50.840;4.346;2023-04-12T00:43:25;11.40;99.90
25410;DHT22;13339;50.840;4.346;2023-04-12T00:45:53;11.30;99.90
25410;DHT22;13339;50.840;4.346;2023-04-12T00:48:19;11.30;99.90
25410;DHT22;13339;50.840;4.346;2023-04-12T00:50:45;11.30;99.90
25410;DHT22;13339;50.840;4.346;2023-04-12T00:53:13;11.30;99.90
25410;DHT22;13339;50.840;4.346;2023-04-12T00:55:42;11.20;99.90
25410;DHT22;13339;50.840;4.346;2023-04-12T00:58:08;11.20;99.90
25410;DHT22;13339;50.840;4.346;2023-04-12T01:00:34;11.30;99.90
25410;DHT22;13339;50.840;4.346;2023-04-12T01:02:59;11.30;99.90
25410;DHT22;13339;50.840;4.346;2023-04-12T01:05:27;11.30;99.90
25410;DHT22;13339;50.840;4.346;2023-04-12T01:13:40;11.30;99.90
25410;DHT22;13339;50.840;4.346;2023-04-12T01:18:49;11.30;99.90
25410;DHT22;13339;50.840;4.346;2023-04-12T01:21:23;11.00;99.90
25410;DHT22;13339;50.840;4.346;2023-04-12T01:24:19;10.90;99.90
25410;DHT22;13339;50.840;4.346;2023-04-12T01:26:48;10.90;99.90
25410;DHT22;13339;50.840;4.346;2023-04-12T01:29:15;10.80;99.90
25410;DHT22;13339;50.840;4.346;2023-04-12T01:31:59;10.80;99.90
25410;DHT22;13339;50.840;4.346;2023-04-12T01:34:28;10.70;99.90
25410;DHT22;13339;50.840;4.346;2023-04-12T01:36:54;10.70;99.90
25410;DHT22;13339;50.840;4.346;2023-04-12T01:39:21;10.80;99.90
25410;DHT22;13339;50.840;4.346;2023-04-12T01:41:47;11.00;99.90
25410;DHT22;13339;50.840;4.346;2023-04-12T01:44:17;11.10;99.90
25410;DHT22;13339;50.840;4.346;2023-04-12T01:46:46;11.10;99.90
25410;DHT22;13339;50.840;4.346;2023-04-12T01:49:14;11.00;99.90
25410;DHT22;13339;50.840;4.346;2023-04-12T01:52:04;11.10;99.90
25410;DHT22;13339;50.840;4.346;2023-04-12T01:54:36;11.30;99.90
25410;DHT22;13339;50.840;4.346;2023-04-12T01:57:03;11.20;99.90
25410;DHT22;13339;50.840;4.346;2023-04-12T01:59:42;11.20;99.90
25410;DHT22;13339;50.840;4.346;2023-04-12T02:02:10;11.30;99.90
25410;DHT22;13339;50.840;4.346;2023-04-12T02:04:37;11.20;99.90
25410;DHT22;13339;50.840;4.346;2023-04-12T02:07:03;11.10;99.90
25410;DHT22;13339;50.840;4.346;2023-04-12T02:09:29;11.10;99.90
25410;DHT22;13339;50.840;4.346;2023-04-12T02:11:55;11.10;99.90
25410;DHT22;13339;50.840;4.346;2023-04-12T02:14:21;11.20;99.90
25410;DHT22;13339;50.840;4.346;2023-04-12T02:16:46;11.30;99.90
25410;DHT22;13339;50.840;4.346;2023-04-12T02:19:12;11.40;99.90
25410;DHT22;13339;50.840;4.346;2023-04-12T02:21:43;11.50;99.90
25410;DHT22;13339;50.840;4.346;2023-04-12T02:24:09;11.40;99.90
25410;DHT22;13339;50.840;4.346;2023-04-12T02:26:35;11.40;99.90
25410;DHT22;13339;50.840;4.346;2023-04-12T02:29:02;11.50;99.90
25410;DHT22;13339;50.840;4.346;2023-04-12T02:31:27;11.70;99.90
25410;DHT22;13339;50.840;4.346;2023-04-12T02:33:55;11.70;99.90
25410;DHT22;13339;50.840;4.346;2023-04-12T02:36:20;11.80;99.90
25410;DHT22;13339;50.840;4.346;2023-04-12T02:38:46;11.80;99.90
25410;DHT22;13339;50.840;4.346;2023-04-12T02:41:18;11.80;99.90
25410;DHT22;13339;50.840;4.346;2023-04-12T02:43:44;11.70;99.90
25410;DHT22;13339;50.840;4.346;2023-04-12T02:46:13;11.70;99.90
25410;DHT22;13339;50.840;4.346;2023-04-12T02:48:39;11.70;99.90
25410;DHT22;13339;50.840;4.346;2023-04-12T02:51:05;11.50;99.90
25410;DHT22;13339;50.840;4.346;2023-04-12T02:53:30;11.40;99.90
25410;DHT22;13339;50.840;4.346;2023-04-12T02:55:56;11.50;99.90
25410;DHT22;13339;50.840;4.346;2023-04-12T02:58:25;11.50;99.90
25410;DHT22;13339;50.840;4.346;2023-04-12T03:00:52;11.60;99.90
25410;DHT22;13339;50.840;4.346;2023-04-12T03:03:17;11.60;99.90
25410;DHT22;13339;50.840;4.346;2023-04-12T03:05:43;11.60;99.90
25410;DHT22;13339;50.840;4.346;2023-04-12T03:08:12;11.60;99.90
25410;DHT22;13339;50.840;4.346;2023-04-12T03:10:37;11.70;99.90
25410;DHT22;13339;50.840;4.346;2023-04-12T03:13:03;11.80;99.90
25410;DHT22;13339;50.840;4.346;2023-04-12T03:15:30;11.70;99.90
25410;DHT22;13339;50.840;4.346;2023-04-12T03:17:56;11.80;99.90
25410;DHT22;13339;50.840;4.346;2023-04-12T03:20:22;11.90;99.90
25410;DHT22;13339;50.840;4.346;2023-04-12T03:22:52;11.90;99.90
25410;DHT22;13339;50.840;4.346;2023-04-12T03:25:18;11.60;99.90
25410;DHT22;13339;50.840;4.346;2023-04-12T03:27:44;11.70;99.90
25410;DHT22;13339;50.840;4.346;2023-04-12T03:30:10;11.80;99.90
25410;DHT22;13339;50.840;4.346;2023-04-12T03:32:40;11.90;99.90
25410;DHT22;13339;50.840;4.346;2023-04-12T03:35:07;11.90;99.90
25410;DHT22;13339;50.840;4.346;2023-04-12T03:37:33;11.90;99.90
25410;DHT22;13339;50.840;4.346;2023-04-12T03:39:59;12.00;99.90
25410;DHT22;13339;50.840;4.346;2023-04-12T03:42:25;12.10;99.90
25410;DHT22;13339;50.840;4.346;2023-04-12T03:44:51;12.20;99.90
25410;DHT22;13339;50.840;4.346;2023-04-12T03:47:17;12.10;99.90
25410;DHT22;13339;50.840;4.346;2023-04-12T03:49:45;12.10;99.90
25410;DHT22;13339;50.840;4.346;2023-04-12T03:52:11;12.10;99.90
25410;DHT22;13339;50.840;4.346;2023-04-12T03:54:37;12.00;99.90
25410;DHT22;13339;50.840;4.346;2023-04-12T03:57:02;12.00;99.90
25410;DHT22;13339;50.840;4.346;2023-04-12T03:59:28;12.20;99.90
25410;DHT22;13339;50.840;4.346;2023-04-12T04:01:55;12.10;99.90
25410;DHT22;13339;50.840;4.346;2023-04-12T04:04:22;12.10;99.90
25410;DHT22;13339;50.840;4.346;2023-04-12T04:06:47;12.20;99.90
25410;DHT22;13339;50.840;4.346;2023-04-12T04:09:13;12.20;99.90
25410;DHT22;13339;50.840;4.346;2023-04-12T04:11:39;12.30;99.90
25410;DHT22;13339;50.840;4.346;2023-04-12T04:14:06;12.30;99.90
25410;DHT22;13339;50.840;4.346;2023-04-12T04:16:32;12.20;99.90
25410;DHT22;13339;50.840;4.346;2023-04-12T04:18:57;12.20;99.90
25410;DHT22;13339;50.840;4.346;2023-04-12T04:21:23;12.20;99.90
25410;DHT22;13339;50.840;4.346;2023-04-12T04:23:48;12.20;99.90
25410;DHT22;13339;50.840;4.346;2023-04-12T04:26:16;12.10;99.90
25410;DHT22;13339;50.840;4.346;2023-04-12T04:28:42;12.10;99.90
25410;DHT22;13339;50.840;4.346;2023-04-12T04:31:10;12.30;99.90
25410;DHT22;13339;50.840;4.346;2023-04-12T04:33:36;12.30;99.90
25410;DHT22;13339;50.840;4.346;2023-04-12T04:36:02;12.40;99.90
25410;DHT22;13339;50.840;4.346;2023-04-12T04:38:29;12.50;99.90
25410;DHT22;13339;50.840;4.346;2023-04-12T04:40:57;12.50;99.90
25410;DHT22;13339;50.840;4.346;2023-04-12T04:43:24;12.40;99.90
25410;DHT22;13339;50.840;4.346;2023-04-12T04:45:51;12.40;99.90
25410;DHT22;13339;50.840;4.346;2023-04-12T04:48:19;12.50;99.90
25410;DHT22;13339;50.840;4.346;2023-04-12T04:50:45;12.50;99.90
25410;DHT22;13339;50.840;4.346;2023-04-12T04:53:11;12.60;99.90
25410;DHT22;13339;50.840;4.346;2023-04-12T04:55:37;12.70;99.90
25410;DHT22;13339;50.840;4.346;2023-04-12T04:58:04;12.60;99.90
25410;DHT22;13339;50.840;4.346;2023-04-12T05:00:30;12.50;99.90
25410;DHT22;13339;50.840;4.346;2023-04-12T05:02:56;12.60;99.90
25410;DHT22;13339;50.840;4.346;2023-04-12T05:05:21;12.60;99.90
25410;DHT22;13339;50.840;4.346;2023-04-12T05:07:48;12.50;99.90
25410;DHT22;13339;50.840;4.346;2023-04-12T05:10:13;12.50;99.90
25410;DHT22;13339;50.840;4.346;2023-04-12T05:12:39;12.50;99.90
25410;DHT22;13339;50.840;4.346;2023-04-12T05:15:05;12.50;99.90
25410;DHT22;13339;50.840;4.346;2023-04-12T05:17:31;12.30;99.90
25410;DHT22;13339;50.840;4.346;2023-04-12T05:19:59;12.40;99.90
25410;DHT22;13339;50.840;4.346;2023-04-12T05:22:25;12.40;99.90
25410;DHT22;13339;50.840;4.346;2023-04-12T05:24:51;12.40;99.90
25410;DHT22;13339;50.840;4.346;2023-04-12T05:27:16;12.40;99.90
25410;DHT22;13339;50.840;4.346;2023-04-12T05:29:43;12.40;99.90
25410;DHT22;13339;50.840;4.346;2023-04-12T05:32:09;12.50;99.90
25410;DHT22;13339;50.840;4.346;2023-04-12T05:34:35;12.70;99.90
25410;DHT22;13339;50.840;4.346;2023-04-12T05:37:04;12.60;99.90
25410;DHT22;13339;50.840;4.346;2023-04-12T05:39:30;12.60;99.90
25410;DHT22;13339;50.840;4.346;2023-04-12T05:41:56;12.70;99.90
25410;DHT22;13339;50.840;4.346;2023-04-12T05:44:21;12.70;99.90
25410;DHT22;13339;50.840;4.346;2023-04-12T05:46:47;12.80;99.90
25410;DHT22;13339;50.840;4.346;2023-04-12T05:49:12;12.90;99.90
25410;DHT22;13339;50.840;4.346;2023-04-12T05:51:38;12.80;99.90
25410;DHT22;13339;50.840;4.346;2023-04-12T05:54:04;12.90;99.90
25410;DHT22;13339;50.840;4.346;2023-04-12T05:56:32;13.00;99.90
25410;DHT22;13339;50.840;4.346;2023-04-12T05:58:58;12.90;99.90
25410;DHT22;13339;50.840;4.346;2023-04-12T06:01:26;12.90;99.90
25410;DHT22;13339;50.840;4.346;2023-04-12T06:03:57;13.00;99.90
25410;DHT22;13339;50.840;4.346;2023-04-12T06:06:23;13.10;99.90
25410;DHT22;13339;50.840;4.346;2023-04-12T06:08:48;13.10;99.90
25410;DHT22;13339;50.840;4.346;2023-04-12T06:11:14;13.20;99.90
25410;DHT22;13339;50.840;4.346;2023-04-12T06:13:40;13.10;99.90
25410;DHT22;13339;50.840;4.346;2023-04-12T06:16:06;13.10;99.90
25410;DHT22;13339;50.840;4.346;2023-04-12T06:18:32;13.10;99.90
25410;DHT22;13339;50.840;4.346;2023-04-12T06:20:58;13.00;99.90
25410;DHT22;13339;50.840;4.346;2023-04-12T06:23:24;13.00;99.90
25410;DHT22;13339;50.840;4.346;2023-04-12T06:25:50;13.10;99.90
25410;DHT22;13339;50.840;4.346;2023-04-12T06:28:17;13.00;99.90
25410;DHT22;13339;50.840;4.346;2023-04-12T06:30:43;13.20;99.90
25410;DHT22;13339;50.840;4.346;2023-04-12T06:33:09;12.90;99.90
25410;DHT22;13339;50.840;4.346;2023-04-12T06:35:35;12.90;99.90
25410;DHT22;13339;50.840;4.346;2023-04-12T06:38:01;12.90;99.90
25410;DHT22;13339;50.840;4.346;2023-04-12T06:40:26;13.00;99.90
25410;DHT22;13339;50.840;4.346;2023-04-12T06:42:52;13.00;99.90
25410;DHT22;13339;50.840;4.346;2023-04-12T06:45:18;13.20;99.90
25410;DHT22;13339;50.840;4.346;2023-04-12T06:47:43;13.20;99.90
25410;DHT22;13339;50.840;4.346;2023-04-12T06:50:09;13.20;99.90
25410;DHT22;13339;50.840;4.346;2023-04-12T06:52:35;13.10;99.90
25410;DHT22;13339;50.840;4.346;2023-04-12T06:55:00;13.10;99.90
25410;DHT22;13339;50.840;4.346;2023-04-12T06:57:26;13.00;99.90
25410;DHT22;13339;50.840;4.346;2023-04-12T06:59:51;13.00;99.90
25410;DHT22;13339;50.840;4.346;2023-04-12T07:02:17;13.10;99.90
25410;DHT22;13339;50.840;4.346;2023-04-12T07:04:43;13.10;99.90
25410;DHT22;13339;50.840;4.346;2023-04-12T07:07:08;13.20;99.90
25410;DHT22;13339;50.840;4.346;2023-04-12T07:09:34;13.20;99.90
25410;DHT22;13339;50.840;4.346;2023-04-12T07:12:00;13.10;99.90
25410;DHT22;13339;50.840;4.346;2023-04-12T07:14:27;13.20;99.90
25410;DHT22;13339;50.840;4.346;2023-04-12T07:16:52;13.20;99.90
25410;DHT22;13339;50.840;4.346;2023-04-12T07:19:18;13.20;99.90
25410;DHT22;13339;50.840;4.346;2023-04-12T07:21:44;13.20;99.90
25410;DHT22;13339;50.840;4.346;2023-04-12T07:24:10;13.30;99.90
25410;DHT22;13339;50.840;4.346;2023-04-12T07:26:35;13.30;99.90
25410;DHT22;13339;50.840;4.346;2023-04-12T07:29:01;13.30;99.90
25410;DHT22;13339;50.840;4.346;2023-04-12T07:31:26;13.40;99.90
25410;DHT22;13339;50.840;4.346;2023-04-12T07:33:55;13.40;99.90
25410;DHT22;13339;50.840;4.346;2023-04-12T07:36:20;13.50;99.90
25410;DHT22;13339;50.840;4.346;2023-04-12T07:38:46;13.50;99.90
25410;DHT22;13339;50.840;4.346;2023-04-12T07:41:13;13.70;99.90
25410;DHT22;13339;50.840;4.346;2023-04-12T07:43:38;13.70;99.90
25410;DHT22;13339;50.840;4.346;2023-04-12T07:46:04;13.60;99.90
25410;DHT22;13339;50.840;4.346;2023-04-12T07:48:33;13.70;99.90
25410;DHT22;13339;50.840;4.346;2023-04-12T07:50:58;13.80;99.90
25410;DHT22;13339;50.840;4.346;2023-04-12T07:53:26;13.90;99.90
25410;DHT22;13339;50.840;4.346;2023-04-12T07:55:53;13.90;99.90
25410;DHT22;13339;50.840;4.346;2023-04-12T07:58:20;14.00;99.90
25410;DHT22;13339;50.840;4.346;2023-04-12T08:00:46;14.20;99.90
25410;DHT22;13339;50.840;4.346;2023-04-12T08:03:16;14.20;99.90
25410;DHT22;13339;50.840;4.346;2023-04-12T08:05:42;14.20;99.90
25410;DHT22;13339;50.840;4.346;2023-04-12T08:08:09;14.20;99.90
25410;DHT22;13339;50.840;4.346;2023-04-12T08:10:38;14.20;99.90
25410;DHT22;13339;50.840;4.346;2023-04-12T08:13:04;14.10;99.90
25410;DHT22;13339;50.840;4.346;2023-04-12T08:15:30;14.30;99.90
25410;DHT22;13339;50.840;4.346;2023-04-12T08:17:56;14.30;99.90
25410;DHT22;13339;50.840;4.346;2023-04-12T08:20:22;14.40;99.90
25410;DHT22;13339;50.840;4.346;2023-04-12T08:22:48;14.50;99.90
25410;DHT22;13339;50.840;4.346;2023-04-12T08:25:14;14.40;99.90
25410;DHT22;13339;50.840;4.346;2023-04-12T08:27:44;14.50;99.90
25410;DHT22;13339;50.840;4.346;2023-04-12T08:30:11;14.50;99.90
25410;DHT22;13339;50.840;4.346;2023-04-12T08:32:36;14.60;99.90
25410;DHT22;13339;50.840;4.346;2023-04-12T08:35:05;14.60;99.90
25410;DHT22;13339;50.840;4.346;2023-04-12T08:37:31;14.80;99.90
25410;DHT22;13339;50.840;4.346;2023-04-12T08:39:59;14.80;99.90
25410;DHT22;13339;50.840;4.346;2023-04-12T08:42:25;14.80;99.90
25410;DHT22;13339;50.840;4.346;2023-04-12T08:44:51;14.90;99.90
25410;DHT22;13339;50.840;4.346;2023-04-12T08:47:18;14.90;99.90
25410;DHT22;13339;50.840;4.346;2023-04-12T08:49:45;14.80;99.90
25410;DHT22;13339;50.840;4.346;2023-04-12T08:52:11;14.70;99.90
25410;DHT22;13339;50.840;4.346;2023-04-12T08:54:36;14.70;99.90
25410;DHT22;13339;50.840;4.346;2023-04-12T08:57:07;14.70;99.90
25410;DHT22;13339;50.840;4.346;2023-04-12T08:59:41;14.60;99.90
25410;DHT22;13339;50.840;4.346;2023-04-12T09:02:08;14.60;99.90
25410;DHT22;13339;50.840;4.346;2023-04-12T09:04:49;14.70;99.90
25410;DHT22;13339;50.840;4.346;2023-04-12T09:07:15;14.60;99.90
25410;DHT22;13339;50.840;4.346;2023-04-12T09:09:45;14.70;99.90
25410;DHT22;13339;50.840;4.346;2023-04-12T09:12:12;14.70;99.90
25410;DHT22;13339;50.840;4.346;2023-04-12T09:14:38;14.70;99.90
25410;DHT22;13339;50.840;4.346;2023-04-12T09:17:19;14.70;99.90
25410;DHT22;13339;50.840;4.346;2023-04-12T09:19:45;14.80;99.90
25410;DHT22;13339;50.840;4.346;2023-04-12T09:22:11;14.80;99.90
25410;DHT22;13339;50.840;4.346;2023-04-12T09:24:47;14.80;99.90
25410;DHT22;13339;50.840;4.346;2023-04-12T09:27:14;14.90;99.90
25410;DHT22;13339;50.840;4.346;2023-04-12T09:29:40;14.80;99.90
25410;DHT22;13339;50.840;4.346;2023-04-12T09:32:07;14.90;99.90
25410;DHT22;13339;50.840;4.346;2023-04-12T09:34:34;15.10;99.90
25410;DHT22;13339;50.840;4.346;2023-04-12T09:37:13;15.00;99.90
25410;DHT22;13339;50.840;4.346;2023-04-12T09:39:40;15.00;99.90
25410;DHT22;13339;50.840;4.346;2023-04-12T09:42:10;14.80;99.90
25410;DHT22;13339;50.840;4.346;2023-04-12T09:44:36;14.80;99.90
25410;DHT22;13339;50.840;4.346;2023-04-12T09:47:02;14.80;99.90
25410;DHT22;13339;50.840;4.346;2023-04-12T09:49:57;14.80;99.90
25410;DHT22;13339;50.840;4.346;2023-04-12T09:52:23;14.70;99.90
25410;DHT22;13339;50.840;4.346;2023-04-12T09:54:49;14.70;99.90
25410;DHT22;13339;50.840;4.346;2023-04-12T09:57:19;14.60;99.90
25410;DHT22;13339;50.840;4.346;2023-04-12T09:59:48;14.70;99.90
25410;DHT22;13339;50.840;4.346;2023-04-12T10:02:20;14.80;99.90
25410;DHT22;13339;50.840;4.346;2023-04-12T10:04:47;14.90;99.90
25410;DHT22;13339;50.840;4.346;2023-04-12T10:07:13;14.70;99.90
25410;DHT22;13339;50.840;4.346;2023-04-12T10:09:40;14.80;99.90
25410;DHT22;13339;50.840;4.346;2023-04-12T10:12:07;14.70;99.90
25410;DHT22;13339;50.840;4.346;2023-04-12T10:14:33;14.80;99.90
25410;DHT22;13339;50.840;4.346;2023-04-12T10:17:00;14.70;99.90
25410;DHT22;13339;50.840;4.346;2023-04-12T10:19:28;14.70;99.90
25410;DHT22;13339;50.840;4.346;2023-04-12T10:21:55;14.70;99.90
25410;DHT22;13339;50.840;4.346;2023-04-12T10:24:25;14.50;99.90
25410;DHT22;13339;50.840;4.346;2023-04-12T10:26:52;14.50;99.90
25410;DHT22;13339;50.840;4.346;2023-04-12T10:29:32;14.50;99.90
25410;DHT22;13339;50.840;4.346;2023-04-12T10:32:19;14.70;99.90
25410;DHT22;13339;50.840;4.346;2023-04-12T10:34:56;14.90;99.90
25410;DHT22;13339;50.840;4.346;2023-04-12T10:37:58;14.90;99.90
25410;DHT22;13339;50.840;4.346;2023-04-12T10:40:28;14.80;99.90
25410;DHT22;13339;50.840;4.346;2023-04-12T10:45:48;14.90;99.90
25410;DHT22;13339;50.840;4.346;2023-04-12T10:48:33;15.00;99.90
25410;DHT22;13339;50.840;4.346;2023-04-12T10:51:17;15.10;99.90
25410;DHT22;13339;50.840;4.346;2023-04-12T10:53:48;15.30;99.90
25410;DHT22;13339;50.840;4.346;2023-04-12T10:59:11;15.60;99.90
25410;DHT22;13339;50.840;4.346;2023-04-12T11:01:37;15.70;99.90
25410;DHT22;13339;50.840;4.346;2023-04-12T11:04:19;15.90;99.90
25410;DHT22;13339;50.840;4.346;2023-04-12T11:06:57;15.90;99.90
25410;DHT22;13339;50.840;4.346;2023-04-12T11:14:38;16.00;99.90
25410;DHT22;13339;50.840;4.346;2023-04-12T11:19:40;16.00;99.90
25410;DHT22;13339;50.840;4.346;2023-04-12T11:22:17;16.00;99.90
25410;DHT22;13339;50.840;4.346;2023-04-12T11:24:45;15.90;99.90
25410;DHT22;13339;50.840;4.346;2023-04-12T11:27:11;16.00;99.90
25410;DHT22;13339;50.840;4.346;2023-04-12T11:29:37;16.00;99.90
25410;DHT22;13339;50.840;4.346;2023-04-12T11:32:04;16.10;99.90
25410;DHT22;13339;50.840;4.346;2023-04-12T11:34:32;16.30;99.90
25410;DHT22;13339;50.840;4.346;2023-04-12T11:36:58;16.50;99.90
25410;DHT22;13339;50.840;4.346;2023-04-12T11:39:26;16.60;99.90
25410;DHT22;13339;50.840;4.346;2023-04-12T11:41:53;16.40;99.90
25410;DHT22;13339;50.840;4.346;2023-04-12T11:44:19;16.20;99.90
25410;DHT22;13339;50.840;4.346;2023-04-12T11:46:46;16.00;99.90
25410;DHT22;13339;50.840;4.346;2023-04-12T11:49:16;15.80;99.90
25410;DHT22;13339;50.840;4.346;2023-04-12T11:51:42;15.10;99.90
25410;DHT22;13339;50.840;4.346;2023-04-12T11:54:09;14.70;99.90
25410;DHT22;13339;50.840;4.346;2023-04-12T11:56:35;14.40;99.90
25410;DHT22;13339;50.840;4.346;2023-04-12T11:59:01;14.20;99.90
25410;DHT22;13339;50.840;4.346;2023-04-12T12:01:27;14.00;99.90
25410;DHT22;13339;50.840;4.346;2023-04-12T12:03:54;13.80;99.90
25410;DHT22;13339;50.840;4.346;2023-04-12T12:06:21;13.70;99.90
25410;DHT22;13339;50.840;4.346;2023-04-12T12:08:49;13.60;99.90
25410;DHT22;13339;50.840;4.346;2023-04-12T12:11:16;13.70;99.90
25410;DHT22;13339;50.840;4.346;2023-04-12T12:13:53;13.40;99.90
25410;DHT22;13339;50.840;4.346;2023-04-12T12:16:26;13.60;99.90
25410;DHT22;13339;50.840;4.346;2023-04-12T12:18:52;13.70;99.90
25410;DHT22;13339;50.840;4.346;2023-04-12T12:21:18;13.70;99.90
25410;DHT22;13339;50.840;4.346;2023-04-12T12:23:45;13.80;99.90
25410;DHT22;13339;50.840;4.346;2023-04-12T12:26:25;14.00;99.90
25410;DHT22;13339;50.840;4.346;2023-04-12T12:28:54;14.10;99.90
25410;DHT22;13339;50.840;4.346;2023-04-12T12:31:22;13.90;99.90
25410;DHT22;13339;50.840;4.346;2023-04-12T12:33:48;14.00;99.90
25410;DHT22;13339;50.840;4.346;2023-04-12T12:36:17;14.10;99.90
25410;DHT22;13339;50.840;4.346;2023-04-12T12:38:46;14.10;99.90
25410;DHT22;13339;50.840;4.346;2023-04-12T12:41:21;14.20;99.90
25410;DHT22;13339;50.840;4.346;2023-04-12T12:43:49;14.30;99.90
25410;DHT22;13339;50.840;4.346;2023-04-12T12:46:15;14.30;99.90
25410;DHT22;13339;50.840;4.346;2023-04-12T12:48:44;14.40;99.90
25410;DHT22;13339;50.840;4.346;2023-04-12T12:51:11;14.50;99.90
25410;DHT22;13339;50.840;4.346;2023-04-12T12:53:38;14.40;99.90
25410;DHT22;13339;50.840;4.346;2023-04-12T12:56:04;14.50;99.90
25410;DHT22;13339;50.840;4.346;2023-04-12T12:58:30;14.50;99.90
25410;DHT22;13339;50.840;4.346;2023-04-12T13:00:56;14.60;99.90
25410;DHT22;13339;50.840;4.346;2023-04-12T13:03:22;14.60;99.90
25410;DHT22;13339;50.840;4.346;2023-04-12T13:05:47;14.70;99.90
25410;DHT22;13339;50.840;4.346;2023-04-12T13:08:14;14.70;99.90
25410;DHT22;13339;50.840;4.346;2023-04-12T13:10:40;14.50;99.90
25410;DHT22;13339;50.840;4.346;2023-04-12T13:13:05;14.60;99.90
25410;DHT22;13339;50.840;4.346;2023-04-12T13:15:31;14.50;99.90
25410;DHT22;13339;50.840;4.346;2023-04-12T13:17:56;14.30;99.90
25410;DHT22;13339;50.840;4.346;2023-04-12T13:20:22;14.20;99.90
25410;DHT22;13339;50.840;4.346;2023-04-12T13:22:49;14.30;99.90
25410;DHT22;13339;50.840;4.346;2023-04-12T13:25:16;14.30;99.90
25410;DHT22;13339;50.840;4.346;2023-04-12T13:27:44;14.10;99.90
25410;DHT22;13339;50.840;4.346;2023-04-12T13:30:10;14.10;99.90
25410;DHT22;13339;50.840;4.346;2023-04-12T13:32:36;13.90;99.90
25410;DHT22;13339;50.840;4.346;2023-04-12T13:35:03;13.90;99.90
25410;DHT22;13339;50.840;4.346;2023-04-12T13:37:29;13.90;99.90
25410;DHT22;13339;50.840;4.346;2023-04-12T13:39:55;13.90;99.90
25410;DHT22;13339;50.840;4.346;2023-04-12T13:42:21;13.80;99.90
25410;DHT22;13339;50.840;4.346;2023-04-12T13:44:47;13.90;99.90
25410;DHT22;13339;50.840;4.346;2023-04-12T13:47:13;14.00;99.90
25410;DHT22;13339;50.840;4.346;2023-04-12T13:49:40;13.90;99.90
25410;DHT22;13339;50.840;4.346;2023-04-12T13:52:06;13.90;99.90
25410;DHT22;13339;50.840;4.346;2023-04-12T13:54:31;13.80;99.90
25410;DHT22;13339;50.840;4.346;2023-04-12T13:56:57;13.50;99.90
25410;DHT22;13339;50.840;4.346;2023-04-12T13:59:24;13.20;99.90
25410;DHT22;13339;50.840;4.346;2023-04-12T14:01:50;13.10;99.90
25410;DHT22;13339;50.840;4.346;2023-04-12T14:04:16;13.20;99.90
25410;DHT22;13339;50.840;4.346;2023-04-12T14:06:41;13.10;99.90
25410;DHT22;13339;50.840;4.346;2023-04-12T14:09:07;13.20;99.90
25410;DHT22;13339;50.840;4.346;2023-04-12T14:11:46;13.40;99.90
25410;DHT22;13339;50.840;4.346;2023-04-12T14:14:12;13.50;99.90
25410;DHT22;13339;50.840;4.346;2023-04-12T14:16:37;13.60;99.90
25410;DHT22;13339;50.840;4.346;2023-04-12T14:19:03;13.70;99.90
25410;DHT22;13339;50.840;4.346;2023-04-12T14:21:29;13.90;99.90
25410;DHT22;13339;50.840;4.346;2023-04-12T14:23:54;14.10;99.90
25410;DHT22;13339;50.840;4.346;2023-04-12T14:26:20;14.30;99.90
25410;DHT22;13339;50.840;4.346;2023-04-12T14:28:46;14.40;99.90
25410;DHT22;13339;50.840;4.346;2023-04-12T14:31:14;14.40;99.90
25410;DHT22;13339;50.840;4.346;2023-04-12T14:33:40;14.50;99.90
25410;DHT22;13339;50.840;4.346;2023-04-12T14:36:06;14.50;99.90
25410;DHT22;13339;50.840;4.346;2023-04-12T14:38:33;14.70;99.90
25410;DHT22;13339;50.840;4.346;2023-04-12T14:40:59;14.80;99.90
25410;DHT22;13339;50.840;4.346;2023-04-12T14:43:24;14.80;99.90
25410;DHT22;13339;50.840;4.346;2023-04-12T14:45:50;14.80;99.90
25410;DHT22;13339;50.840;4.346;2023-04-12T14:48:16;14.90;99.90
25410;DHT22;13339;50.840;4.346;2023-04-12T14:50:41;14.80;99.90
25410;DHT22;13339;50.840;4.346;2023-04-12T14:53:07;14.60;99.90
25410;DHT22;13339;50.840;4.346;2023-04-12T14:55:34;14.70;99.90
25410;DHT22;13339;50.840;4.346;2023-04-12T14:57:59;14.50;99.90
25410;DHT22;13339;50.840;4.346;2023-04-12T15:00:25;14.50;99.90
25410;DHT22;13339;50.840;4.346;2023-04-12T15:02:54;14.60;99.90
25410;DHT22;13339;50.840;4.346;2023-04-12T15:05:19;14.70;99.90
25410;DHT22;13339;50.840;4.346;2023-04-12T15:07:45;14.70;99.90
25410;DHT22;13339;50.840;4.346;2023-04-12T15:10:10;14.60;99.90
25410;DHT22;13339;50.840;4.346;2023-04-12T15:12:40;14.60;99.90
25410;DHT22;13339;50.840;4.346;2023-04-12T15:15:07;14.70;99.90
25410;DHT22;13339;50.840;4.346;2023-04-12T15:17:33;14.80;99.90
25410;DHT22;13339;50.840;4.346;2023-04-12T15:19:59;14.80;99.90
25410;DHT22;13339;50.840;4.346;2023-04-12T15:22:24;14.90;99.90
25410;DHT22;13339;50.840;4.346;2023-04-12T15:24:51;14.90;99.90
25410;DHT22;13339;50.840;4.346;2023-04-12T15:27:17;14.90;99.90
25410;DHT22;13339;50.840;4.346;2023-04-12T15:29:43;14.80;99.90
25410;DHT22;13339;50.840;4.346;2023-04-12T15:32:08;14.80;99.90
25410;DHT22;13339;50.840;4.346;2023-04-12T15:34:34;14.90;99.90
25410;DHT22;13339;50.840;4.346;2023-04-12T15:37:00;14.90;99.90
25410;DHT22;13339;50.840;4.346;2023-04-12T15:39:25;15.00;99.90
25410;DHT22;13339;50.840;4.346;2023-04-12T15:41:51;15.10;99.90
25410;DHT22;13339;50.840;4.346;2023-04-12T15:44:17;15.00;99.90
25410;DHT22;13339;50.840;4.346;2023-04-12T15:46:43;15.10;99.90
25410;DHT22;13339;50.840;4.346;2023-04-12T15:49:11;15.10;99.90
25410;DHT22;13339;50.840;4.346;2023-04-12T15:51:37;15.00;99.90
25410;DHT22;13339;50.840;4.346;2023-04-12T15:54:02;15.00;99.90